createdAt,value
2017-12-17T00:00:03.690Z,771.52
2017-12-17T00:00:07.727Z,771.51
2017-12-17T00:00:11.972Z,771.49
2017-12-17T00:00:16.336Z,771.54
2017-12-17T00:00:20.381Z,771.58
2017-12-17T00:00:24.504Z,771.55
2017-12-17T00:00:28.530Z,771.56
2017-12-17T00:00:32.582Z,771.56
2017-12-17T00:00:36.828Z,771.56
2017-12-17T00:00:41.061Z,771.58
2017-12-17T00:00:45.409Z,771.57
2017-12-17T00:00:49.537Z,771.55
2017-12-17T00:00:53.786Z,771.56
2017-12-17T00:00:57.953Z,771.56
2017-12-17T00:01:02.648Z,771.55
2017-12-17T00:01:06.880Z,771.55
2017-12-17T00:01:11.127Z,771.52
2017-12-17T00:01:15.465Z,771.57
2017-12-17T00:01:19.725Z,771.56
2017-12-17T00:01:23.836Z,771.54
2017-12-17T00:01:28.152Z,771.57
2017-12-17T00:01:32.072Z,771.55
2017-12-17T00:01:36.114Z,771.55
2017-12-17T00:01:40.357Z,771.56
2017-12-17T00:01:44.717Z,771.51
2017-12-17T00:01:48.947Z,771.56
2017-12-17T00:01:53.183Z,771.58
2017-12-17T00:01:57.551Z,771.6
2017-12-17T00:02:01.799Z,771.56
2017-12-17T00:02:05.940Z,771.57
2017-12-17T00:02:09.973Z,771.59
2017-12-17T00:02:14.201Z,771.57
2017-12-17T00:02:18.446Z,771.6
2017-12-17T00:02:22.800Z,771.55
2017-12-17T00:02:27.045Z,771.55
2017-12-17T00:02:31.093Z,771.55
2017-12-17T00:02:35.010Z,771.59
2017-12-17T00:02:39.344Z,771.54
2017-12-17T00:02:43.712Z,771.57
2017-12-17T00:02:47.858Z,771.58
2017-12-17T00:02:52.230Z,771.6
2017-12-17T00:02:56.348Z,771.6
2017-12-17T00:03:00.693Z,771.55
2017-12-17T00:03:04.825Z,771.55
2017-12-17T00:03:09.067Z,771.59
2017-12-17T00:03:13.204Z,771.54
2017-12-17T00:03:17.540Z,771.59
2017-12-17T00:03:21.680Z,771.57
2017-12-17T00:03:25.808Z,771.54
2017-12-17T00:03:30.033Z,771.6
2017-12-17T00:03:34.157Z,771.57
2017-12-17T00:03:38.406Z,771.57
2017-12-17T00:03:42.758Z,771.58
2017-12-17T00:03:46.805Z,771.58
2017-12-17T00:03:50.940Z,771.57
2017-12-17T00:03:54.957Z,771.59
2017-12-17T00:03:59.218Z,771.58
2017-12-17T00:04:03.459Z,771.53
2017-12-17T00:04:07.700Z,771.58
2017-12-17T00:04:11.954Z,771.57
2017-12-17T00:04:16.295Z,771.55
2017-12-17T00:04:20.204Z,771.59
2017-12-17T00:04:24.436Z,771.57
2017-12-17T00:04:28.580Z,771.6
2017-12-17T00:04:32.828Z,771.58
2017-12-17T00:04:36.852Z,771.59
2017-12-17T00:04:41.210Z,771.57
2017-12-17T00:04:45.561Z,771.56
2017-12-17T00:04:49.700Z,771.59
2017-12-17T00:04:53.947Z,771.58
2017-12-17T00:04:58.305Z,771.58
2017-12-17T00:05:02.653Z,771.58
2017-12-17T00:05:06.884Z,771.55
2017-12-17T00:05:11.130Z,771.6
2017-12-17T00:05:15.269Z,771.58
2017-12-17T00:05:19.623Z,771.58
2017-12-17T00:05:23.969Z,771.57
2017-12-17T00:05:28.226Z,771.59
2017-12-17T00:05:32.273Z,771.57
2017-12-17T00:05:36.431Z,771.6
2017-12-17T00:05:40.694Z,771.56
2017-12-17T00:05:44.932Z,771.54
2017-12-17T00:05:49.072Z,771.58
2017-12-17T00:05:53.416Z,771.54
2017-12-17T00:05:57.649Z,771.59
2017-12-17T00:06:01.904Z,771.55
2017-12-17T00:06:06.136Z,771.55
2017-12-17T00:06:10.178Z,771.57
2017-12-17T00:06:14.523Z,771.54
2017-12-17T00:06:18.872Z,771.58
2017-12-17T00:06:23.124Z,771.56
2017-12-17T00:06:27.265Z,771.52
2017-12-17T00:06:31.508Z,771.53
2017-12-17T00:06:35.862Z,771.51
2017-12-17T00:06:39.771Z,771.5
2017-12-17T00:06:44.121Z,771.53
2017-12-17T00:06:48.485Z,771.51
2017-12-17T00:06:52.634Z,771.5
2017-12-17T00:06:56.899Z,771.5
2017-12-17T00:07:00.936Z,771.47
2017-12-17T00:07:05.153Z,771.51
2017-12-17T00:07:09.297Z,771.49
2017-12-17T00:07:13.550Z,771.5
2017-12-17T00:07:17.790Z,771.5
2017-12-17T00:07:21.718Z,771.52
2017-12-17T00:07:25.953Z,771.54
2017-12-17T00:07:30.343Z,771.46
2017-12-17T00:07:34.486Z,771.48
2017-12-17T00:07:38.616Z,771.48
2017-12-17T00:07:42.853Z,771.48
2017-12-17T00:07:47.189Z,771.47
2017-12-17T00:07:51.565Z,771.46
2017-12-17T00:07:55.696Z,771.47
2017-12-17T00:07:59.940Z,771.46
2017-12-17T00:08:04.069Z,771.45
2017-12-17T00:08:08.215Z,771.47
2017-12-17T00:08:12.464Z,771.45
2017-12-17T00:08:16.699Z,771.48
2017-12-17T00:08:20.946Z,771.46
2017-12-17T00:08:25.173Z,771.45
2017-12-17T00:08:29.337Z,771.46
2017-12-17T00:08:33.676Z,771.49
2017-12-17T00:08:38.021Z,771.45
2017-12-17T00:08:42.263Z,771.46
2017-12-17T00:08:46.612Z,771.45
2017-12-17T00:08:50.962Z,771.45
2017-12-17T00:08:55.299Z,771.43
2017-12-17T00:08:59.544Z,771.46
2017-12-17T00:09:04.092Z,771.44
2017-12-17T00:09:08.222Z,771.47
2017-12-17T00:09:12.479Z,771.45
2017-12-17T00:09:16.610Z,771.41
2017-12-17T00:09:20.971Z,771.44
2017-12-17T00:09:25.223Z,771.41
2017-12-17T00:09:29.361Z,771.45
2017-12-17T00:09:33.608Z,771.47
2017-12-17T00:09:37.768Z,771.42
2017-12-17T00:09:41.896Z,771.41
2017-12-17T00:09:46.250Z,771.47
2017-12-17T00:09:50.603Z,771.45
2017-12-17T00:09:55.082Z,771.45
2017-12-17T00:09:59.511Z,771.48
2017-12-17T00:10:03.651Z,771.42
2017-12-17T00:10:08.019Z,771.45
2017-12-17T00:10:12.264Z,771.41
2017-12-17T00:10:16.403Z,771.43
2017-12-17T00:10:20.743Z,771.45
2017-12-17T00:10:24.969Z,771.41
2017-12-17T00:10:29.150Z,771.35
2017-12-17T00:10:33.175Z,771.35
2017-12-17T00:10:37.314Z,771.32
2017-12-17T00:10:41.468Z,771.34
2017-12-17T00:10:45.600Z,771.36
2017-12-17T00:10:49.833Z,771.41
2017-12-17T00:10:54.189Z,771.43
2017-12-17T00:10:58.484Z,771.43
2017-12-17T00:11:02.733Z,771.35
2017-12-17T00:11:06.868Z,771.4
2017-12-17T00:11:11.106Z,771.36
2017-12-17T00:11:15.232Z,771.37
2017-12-17T00:11:19.280Z,771.36
2017-12-17T00:11:23.306Z,771.39
2017-12-17T00:11:27.447Z,771.36
2017-12-17T00:11:31.787Z,771.36
2017-12-17T00:11:36.040Z,771.39
2017-12-17T00:11:40.283Z,771.38
2017-12-17T00:11:44.517Z,771.4
2017-12-17T00:11:48.864Z,771.39
2017-12-17T00:11:53.093Z,771.4
2017-12-17T00:11:57.488Z,771.37
2017-12-17T00:12:01.829Z,771.37
2017-12-17T00:12:05.859Z,771.36
2017-12-17T00:12:10.031Z,771.38
2017-12-17T00:12:14.160Z,771.36
2017-12-17T00:12:18.507Z,771.35
2017-12-17T00:12:22.856Z,771.39
2017-12-17T00:12:27.085Z,771.39
2017-12-17T00:12:31.426Z,771.36
2017-12-17T00:12:35.467Z,771.35
2017-12-17T00:12:39.714Z,771.37
2017-12-17T00:12:43.973Z,771.36
2017-12-17T00:12:48.086Z,771.37
2017-12-17T00:12:52.225Z,771.37
2017-12-17T00:12:56.577Z,771.39
2017-12-17T00:13:00.813Z,771.37
2017-12-17T00:13:04.952Z,771.35
2017-12-17T00:13:09.189Z,771.39
2017-12-17T00:13:13.533Z,771.36
2017-12-17T00:13:17.787Z,771.38
2017-12-17T00:13:22.127Z,771.36
2017-12-17T00:13:26.384Z,771.34
2017-12-17T00:13:30.618Z,771.36
2017-12-17T00:13:34.865Z,771.35
2017-12-17T00:13:39.123Z,771.36
2017-12-17T00:13:43.380Z,771.37
2017-12-17T00:13:47.507Z,771.36
2017-12-17T00:13:51.745Z,771.36
2017-12-17T00:13:55.890Z,771.35
2017-12-17T00:14:00.155Z,771.37
2017-12-17T00:14:04.500Z,771.3
2017-12-17T00:14:08.553Z,771.32
2017-12-17T00:14:12.796Z,771.31
2017-12-17T00:14:17.142Z,771.29
2017-12-17T00:14:21.377Z,771.31
2017-12-17T00:14:25.530Z,771.32
2017-12-17T00:14:29.765Z,771.28
2017-12-17T00:14:33.912Z,771.29
2017-12-17T00:14:38.158Z,771.29
2017-12-17T00:14:42.507Z,771.28
2017-12-17T00:14:46.755Z,771.28
2017-12-17T00:14:50.991Z,771.31
2017-12-17T00:14:55.251Z,771.28
2017-12-17T00:14:59.594Z,771.26
2017-12-17T00:15:03.822Z,771.22
2017-12-17T00:15:07.839Z,771.23
2017-12-17T00:15:12.091Z,771.25
2017-12-17T00:15:16.354Z,771.24
2017-12-17T00:15:20.598Z,771.25
2017-12-17T00:15:24.740Z,771.26
2017-12-17T00:15:28.774Z,771.25
2017-12-17T00:15:32.905Z,771.26
2017-12-17T00:15:37.241Z,771.23
2017-12-17T00:15:41.590Z,771.23
2017-12-17T00:15:45.946Z,771.23
2017-12-17T00:15:49.984Z,771.2
2017-12-17T00:15:54.243Z,771.19
2017-12-17T00:15:58.601Z,771.19
2017-12-17T00:16:02.738Z,771.19
2017-12-17T00:16:06.983Z,771.16
2017-12-17T00:16:11.204Z,771.15
2017-12-17T00:16:15.542Z,771.15
2017-12-17T00:16:19.776Z,771.22
2017-12-17T00:16:24.023Z,771.22
2017-12-17T00:16:28.176Z,771.23
2017-12-17T00:16:32.297Z,771.2
2017-12-17T00:16:36.472Z,771.18
2017-12-17T00:16:40.825Z,771.22
2017-12-17T00:16:45.081Z,771.19
2017-12-17T00:16:49.010Z,771.19
2017-12-17T00:16:53.247Z,771.21
2017-12-17T00:16:57.477Z,771.17
2017-12-17T00:17:01.611Z,771.19
2017-12-17T00:17:05.956Z,771.18
2017-12-17T00:17:09.990Z,771.15
2017-12-17T00:17:14.117Z,771.18
2017-12-17T00:17:18.263Z,771.14
2017-12-17T00:17:22.499Z,771.18
2017-12-17T00:17:26.743Z,771.17
2017-12-17T00:17:31.003Z,771.2
2017-12-17T00:17:35.157Z,771.21
2017-12-17T00:17:39.390Z,771.22
2017-12-17T00:17:43.646Z,771.18
2017-12-17T00:17:47.787Z,771.18
2017-12-17T00:17:51.924Z,771.21
2017-12-17T00:17:56.169Z,771.2
2017-12-17T00:18:00.412Z,771.19
2017-12-17T00:18:04.860Z,771.16
2017-12-17T00:18:08.988Z,771.18
2017-12-17T00:18:13.226Z,771.1
2017-12-17T00:18:17.487Z,771.14
2017-12-17T00:18:21.722Z,771.15
2017-12-17T00:18:25.979Z,771.15
2017-12-17T00:18:30.218Z,771.14
2017-12-17T00:18:34.574Z,771.11
2017-12-17T00:18:38.817Z,771.11
2017-12-17T00:18:43.167Z,771.16
2017-12-17T00:18:47.410Z,771.13
2017-12-17T00:18:51.630Z,771.17
2017-12-17T00:18:55.759Z,771.16
2017-12-17T00:18:59.895Z,771.13
2017-12-17T00:19:04.495Z,771.12
2017-12-17T00:19:08.739Z,771.15
2017-12-17T00:19:12.867Z,771.17
2017-12-17T00:19:16.994Z,771.15
2017-12-17T00:19:21.307Z,771.13
2017-12-17T00:19:25.648Z,771.13
2017-12-17T00:19:29.816Z,771.13
2017-12-17T00:19:34.060Z,771.11
2017-12-17T00:19:38.306Z,771.16
2017-12-17T00:19:42.661Z,771.14
2017-12-17T00:19:46.890Z,771.11
2017-12-17T00:19:51.034Z,771.12
2017-12-17T00:19:55.066Z,771.12
2017-12-17T00:19:59.108Z,771.11
2017-12-17T00:20:03.523Z,771.14
2017-12-17T00:20:07.450Z,771.11
2017-12-17T00:20:11.711Z,771.12
2017-12-17T00:20:15.742Z,771.12
2017-12-17T00:20:19.877Z,771.08
2017-12-17T00:20:24.019Z,771.09
2017-12-17T00:20:28.141Z,771.12
2017-12-17T00:20:32.543Z,771.05
2017-12-17T00:20:36.794Z,771.08
2017-12-17T00:20:41.041Z,771.07
2017-12-17T00:20:45.390Z,771.09
2017-12-17T00:20:49.513Z,771.07
2017-12-17T00:20:53.649Z,771.1
2017-12-17T00:20:57.796Z,771.09
2017-12-17T00:21:02.123Z,771.08
2017-12-17T00:21:06.254Z,771.06
2017-12-17T00:21:10.489Z,771.05
2017-12-17T00:21:14.736Z,771.06
2017-12-17T00:21:18.969Z,771.04
2017-12-17T00:21:23.201Z,771.05
2017-12-17T00:21:27.555Z,771.06
2017-12-17T00:21:31.926Z,771.04
2017-12-17T00:21:36.268Z,771.03
2017-12-17T00:21:40.603Z,771.05
2017-12-17T00:21:44.846Z,771.03
2017-12-17T00:21:48.974Z,771.01
2017-12-17T00:21:52.998Z,771.03
2017-12-17T00:21:57.034Z,771.03
2017-12-17T00:22:01.283Z,771.06
2017-12-17T00:22:05.532Z,771.04
2017-12-17T00:22:09.559Z,771.02
2017-12-17T00:22:13.904Z,771.02
2017-12-17T00:22:18.162Z,771.03
2017-12-17T00:22:22.524Z,770.99
2017-12-17T00:22:26.550Z,771.03
2017-12-17T00:22:30.798Z,771
2017-12-17T00:22:34.926Z,771.02
2017-12-17T00:22:39.076Z,771.01
2017-12-17T00:22:43.433Z,771.01
2017-12-17T00:22:47.650Z,771.03
2017-12-17T00:22:51.782Z,770.99
2017-12-17T00:22:55.478Z,771.02
2017-12-17T00:22:59.732Z,771.01
2017-12-17T00:23:03.868Z,771.02
2017-12-17T00:23:07.998Z,771.02
2017-12-17T00:23:12.025Z,771.02
2017-12-17T00:23:16.370Z,770.99
2017-12-17T00:23:20.705Z,771.03
2017-12-17T00:23:24.843Z,771.01
2017-12-17T00:23:28.762Z,771.01
2017-12-17T00:23:33.013Z,771.01
2017-12-17T00:23:37.361Z,771
2017-12-17T00:23:41.616Z,771.02
2017-12-17T00:23:45.843Z,770.99
2017-12-17T00:23:50.189Z,770.99
2017-12-17T00:23:54.324Z,770.99
2017-12-17T00:23:58.569Z,770.98
2017-12-17T00:24:03.065Z,770.99
2017-12-17T00:24:07.218Z,770.97
2017-12-17T00:24:11.568Z,770.99
2017-12-17T00:24:15.706Z,770.97
2017-12-17T00:24:19.945Z,770.98
2017-12-17T00:24:24.177Z,770.99
2017-12-17T00:24:28.420Z,770.96
2017-12-17T00:24:32.664Z,770.96
2017-12-17T00:24:36.910Z,770.99
2017-12-17T00:24:41.137Z,770.96
2017-12-17T00:24:45.484Z,770.98
2017-12-17T00:24:49.729Z,771
2017-12-17T00:24:53.987Z,770.96
2017-12-17T00:24:58.115Z,770.99
2017-12-17T00:25:02.254Z,770.96
2017-12-17T00:25:06.496Z,770.96
2017-12-17T00:25:10.860Z,770.95
2017-12-17T00:25:15.102Z,770.94
2017-12-17T00:25:19.345Z,770.95
2017-12-17T00:25:23.482Z,770.97
2017-12-17T00:25:27.833Z,770.98
2017-12-17T00:25:32.187Z,770.97
2017-12-17T00:25:36.434Z,770.96
2017-12-17T00:25:40.766Z,770.95
2017-12-17T00:25:45.017Z,770.97
2017-12-17T00:25:49.258Z,770.94
2017-12-17T00:25:53.487Z,770.95
2017-12-17T00:25:57.697Z,770.96
2017-12-17T00:26:01.943Z,771
2017-12-17T00:26:06.338Z,771
2017-12-17T00:26:10.620Z,770.97
2017-12-17T00:26:15.014Z,770.96
2017-12-17T00:26:19.142Z,770.95
2017-12-17T00:26:23.470Z,770.96
2017-12-17T00:26:27.440Z,770.97
2017-12-17T00:26:31.780Z,770.96
2017-12-17T00:26:36.015Z,770.93
2017-12-17T00:26:40.152Z,770.91
2017-12-17T00:26:44.508Z,770.96
2017-12-17T00:26:48.869Z,770.94
2017-12-17T00:26:53.115Z,770.97
2017-12-17T00:26:57.150Z,770.93
2017-12-17T00:27:01.278Z,770.96
2017-12-17T00:27:05.767Z,770.94
2017-12-17T00:27:09.899Z,770.93
2017-12-17T00:27:13.929Z,770.92
2017-12-17T00:27:17.955Z,770.94
2017-12-17T00:27:22.219Z,770.91
2017-12-17T00:27:26.353Z,770.95
2017-12-17T00:27:30.658Z,770.93
2017-12-17T00:27:34.794Z,770.89
2017-12-17T00:27:39.036Z,770.92
2017-12-17T00:27:43.303Z,770.95
2017-12-17T00:27:47.443Z,770.91
2017-12-17T00:27:51.462Z,770.91
2017-12-17T00:27:55.765Z,770.91
2017-12-17T00:27:59.937Z,770.94
2017-12-17T00:28:04.285Z,770.93
2017-12-17T00:28:08.542Z,770.92
2017-12-17T00:28:12.791Z,770.93
2017-12-17T00:28:17.084Z,770.93
2017-12-17T00:28:21.206Z,770.93
2017-12-17T00:28:25.358Z,770.93
2017-12-17T00:28:29.711Z,770.94
2017-12-17T00:28:33.956Z,770.95
2017-12-17T00:28:38.175Z,770.97
2017-12-17T00:28:42.394Z,770.94
2017-12-17T00:28:46.623Z,770.93
2017-12-17T00:28:50.870Z,770.94
2017-12-17T00:28:54.788Z,770.95
2017-12-17T00:28:59.015Z,770.94
2017-12-17T00:29:03.358Z,770.92
2017-12-17T00:29:07.390Z,770.94
2017-12-17T00:29:11.414Z,770.94
2017-12-17T00:29:15.447Z,770.93
2017-12-17T00:29:19.685Z,770.94
2017-12-17T00:29:24.038Z,770.95
2017-12-17T00:29:28.242Z,770.93
2017-12-17T00:29:32.495Z,770.95
2017-12-17T00:29:36.852Z,770.92
2017-12-17T00:29:40.986Z,770.94
2017-12-17T00:29:45.325Z,770.95
2017-12-17T00:29:49.573Z,770.92
2017-12-17T00:29:53.930Z,770.88
2017-12-17T00:29:57.938Z,770.98
2017-12-17T00:30:02.308Z,770.92
2017-12-17T00:30:06.553Z,770.96
2017-12-17T00:30:10.949Z,770.93
2017-12-17T00:30:15.196Z,770.94
2017-12-17T00:30:19.550Z,770.95
2017-12-17T00:30:23.796Z,770.95
2017-12-17T00:30:28.033Z,770.94
2017-12-17T00:30:32.054Z,770.95
2017-12-17T00:30:36.175Z,770.97
2017-12-17T00:30:40.437Z,770.95
2017-12-17T00:30:44.670Z,770.99
2017-12-17T00:30:48.906Z,770.94
2017-12-17T00:30:53.252Z,770.96
2017-12-17T00:30:57.487Z,770.94
2017-12-17T00:31:01.743Z,770.92
2017-12-17T00:31:06.247Z,770.95
2017-12-17T00:31:10.378Z,770.93
2017-12-17T00:31:14.503Z,770.94
2017-12-17T00:31:18.859Z,770.94
2017-12-17T00:31:22.991Z,770.94
2017-12-17T00:31:27.134Z,770.95
2017-12-17T00:31:31.272Z,770.93
2017-12-17T00:31:35.415Z,770.96
2017-12-17T00:31:39.534Z,770.94
2017-12-17T00:31:43.872Z,770.97
2017-12-17T00:31:48.120Z,770.94
2017-12-17T00:31:52.374Z,770.94
2017-12-17T00:31:56.614Z,770.93
2017-12-17T00:32:00.838Z,770.95
2017-12-17T00:32:05.190Z,770.92
2017-12-17T00:32:09.454Z,770.95
2017-12-17T00:32:13.579Z,770.97
2017-12-17T00:32:17.833Z,770.95
2017-12-17T00:32:22.086Z,770.95
2017-12-17T00:32:26.416Z,770.96
2017-12-17T00:32:30.538Z,770.92
2017-12-17T00:32:34.573Z,770.94
2017-12-17T00:32:38.800Z,770.93
2017-12-17T00:32:43.051Z,770.89
2017-12-17T00:33:19.285Z,770.97
2017-12-17T00:33:23.533Z,771
2017-12-17T00:33:27.876Z,770.95
2017-12-17T00:33:31.901Z,770.96
2017-12-17T00:33:36.147Z,770.95
2017-12-17T00:33:40.292Z,770.96
2017-12-17T00:33:44.318Z,770.98
2017-12-17T00:33:48.627Z,770.97
2017-12-17T00:33:52.985Z,770.95
2017-12-17T00:33:57.224Z,770.96
2017-12-17T00:34:01.351Z,770.94
2017-12-17T00:34:05.844Z,770.93
2017-12-17T00:34:09.981Z,770.95
2017-12-17T00:34:13.899Z,770.96
2017-12-17T00:34:18.144Z,770.92
2017-12-17T00:34:22.273Z,770.96
2017-12-17T00:34:26.640Z,770.97
2017-12-17T00:34:30.888Z,770.92
2017-12-17T00:34:35.251Z,770.96
2017-12-17T00:34:39.605Z,770.95
2017-12-17T00:34:43.852Z,770.93
2017-12-17T00:34:48.201Z,770.94
2017-12-17T00:34:52.433Z,770.97
2017-12-17T00:34:56.767Z,770.97
2017-12-17T00:35:00.931Z,770.99
2017-12-17T00:35:05.534Z,770.96
2017-12-17T00:35:09.674Z,770.94
2017-12-17T00:35:13.829Z,771
2017-12-17T00:35:17.854Z,770.95
2017-12-17T00:35:22.096Z,770.97
2017-12-17T00:35:26.441Z,771
2017-12-17T00:35:30.568Z,771.01
2017-12-17T00:35:34.811Z,770.98
2017-12-17T00:35:38.957Z,770.97
2017-12-17T00:35:43.303Z,770.96
2017-12-17T00:35:47.649Z,770.98
2017-12-17T00:35:51.999Z,770.98
2017-12-17T00:35:56.229Z,770.97
2017-12-17T00:36:00.266Z,770.96
2017-12-17T00:36:04.408Z,770.96
2017-12-17T00:36:08.342Z,770.97
2017-12-17T00:36:12.586Z,770.98
2017-12-17T00:36:16.944Z,770.97
2017-12-17T00:36:21.084Z,771.01
2017-12-17T00:36:25.431Z,771
2017-12-17T00:36:29.577Z,771.01
2017-12-17T00:36:33.905Z,771.03
2017-12-17T00:36:38.152Z,771.01
2017-12-17T00:36:42.389Z,771.01
2017-12-17T00:36:46.789Z,770.99
2017-12-17T00:36:51.150Z,771.02
2017-12-17T00:36:55.404Z,771
2017-12-17T00:36:59.536Z,771.01
2017-12-17T00:37:03.821Z,771
2017-12-17T00:37:07.735Z,771.02
2017-12-17T00:37:11.983Z,771.01
2017-12-17T00:37:16.333Z,771.03
2017-12-17T00:37:20.477Z,771.01
2017-12-17T00:37:24.697Z,771
2017-12-17T00:37:29.080Z,770.99
2017-12-17T00:37:33.316Z,770.98
2017-12-17T00:37:37.852Z,771
2017-12-17T00:37:42.273Z,771.01
2017-12-17T00:37:46.626Z,771
2017-12-17T00:37:50.860Z,771.02
2017-12-17T00:37:54.884Z,771.01
2017-12-17T00:37:59.121Z,771.02
2017-12-17T00:38:03.356Z,771.05
2017-12-17T00:38:07.498Z,771.04
2017-12-17T00:38:11.744Z,771.04
2017-12-17T00:38:15.766Z,770.99
2017-12-17T00:38:19.893Z,770.99
2017-12-17T00:38:24.014Z,771.03
2017-12-17T00:38:28.264Z,771.01
2017-12-17T00:38:32.522Z,771.02
2017-12-17T00:38:36.764Z,771.06
2017-12-17T00:38:41.009Z,770.99
2017-12-17T00:38:45.256Z,771.02
2017-12-17T00:38:49.602Z,771.02
2017-12-17T00:38:53.775Z,771.02
2017-12-17T00:38:58.013Z,771.05
2017-12-17T00:39:02.249Z,771.04
2017-12-17T00:39:06.275Z,771.04
2017-12-17T00:39:10.095Z,771.03
2017-12-17T00:39:14.221Z,771.02
2017-12-17T00:39:18.453Z,771.02
2017-12-17T00:39:22.583Z,771.01
2017-12-17T00:39:26.829Z,771
2017-12-17T00:39:31.166Z,771
2017-12-17T00:39:35.413Z,771.01
2017-12-17T00:39:39.652Z,771.01
2017-12-17T00:39:43.891Z,771
2017-12-17T00:39:48.140Z,770.97
2017-12-17T00:39:52.262Z,770.98
2017-12-17T00:39:56.393Z,770.99
2017-12-17T00:40:00.638Z,770.97
2017-12-17T00:40:04.934Z,770.98
2017-12-17T00:40:09.176Z,770.97
2017-12-17T00:40:12.993Z,770.98
2017-12-17T00:40:17.245Z,770.95
2017-12-17T00:40:21.371Z,770.98
2017-12-17T00:40:25.411Z,770.99
2017-12-17T00:40:29.670Z,771.01
2017-12-17T00:40:34.013Z,770.96
2017-12-17T00:40:38.355Z,770.97
2017-12-17T00:40:42.484Z,771
2017-12-17T00:40:46.832Z,770.98
2017-12-17T00:40:51.073Z,770.98
2017-12-17T00:40:55.299Z,770.96
2017-12-17T00:40:59.547Z,770.98
2017-12-17T00:41:03.856Z,771.01
2017-12-17T00:41:07.997Z,771.01
2017-12-17T00:41:12.239Z,771.01
2017-12-17T00:41:16.473Z,771.03
2017-12-17T00:41:20.744Z,771.03
2017-12-17T00:41:24.880Z,771.01
2017-12-17T00:41:29.020Z,771
2017-12-17T00:41:33.422Z,771.04
2017-12-17T00:41:37.560Z,771.02
2017-12-17T00:41:41.695Z,771.05
2017-12-17T00:41:46.136Z,771.04
2017-12-17T00:41:50.587Z,771.02
2017-12-17T00:41:54.621Z,770.99
2017-12-17T00:41:58.874Z,770.99
2017-12-17T00:42:03.008Z,771.04
2017-12-17T00:42:07.162Z,771.06
2017-12-17T00:42:11.169Z,771.04
2017-12-17T00:42:15.297Z,771.01
2017-12-17T00:42:19.440Z,771.02
2017-12-17T00:42:23.587Z,771.04
2017-12-17T00:42:27.944Z,771.05
2017-12-17T00:42:32.289Z,771.03
2017-12-17T00:42:36.521Z,771.02
2017-12-17T00:42:40.867Z,771.06
2017-12-17T00:42:44.906Z,771.09
2017-12-17T00:42:49.248Z,771.06
2017-12-17T00:42:53.177Z,771.05
2017-12-17T00:42:57.306Z,771.1
2017-12-17T00:43:01.443Z,771.07
2017-12-17T00:43:05.795Z,771.06
2017-12-17T00:43:10.036Z,771.08
2017-12-17T00:43:14.280Z,771.08
2017-12-17T00:43:18.530Z,771.1
2017-12-17T00:43:22.889Z,771.09
2017-12-17T00:43:27.143Z,771.08
2017-12-17T00:43:31.557Z,771.07
2017-12-17T00:43:35.925Z,771.09
2017-12-17T00:43:40.292Z,771.09
2017-12-17T00:43:44.636Z,771.09
2017-12-17T00:43:48.985Z,771.1
2017-12-17T00:43:53.016Z,771.08
2017-12-17T00:43:57.334Z,771.05
2017-12-17T00:44:01.765Z,771.07
2017-12-17T00:44:06.019Z,771.1
2017-12-17T00:44:10.256Z,771.11
2017-12-17T00:44:14.601Z,771.13
2017-12-17T00:44:18.844Z,771.09
2017-12-17T00:44:22.980Z,771.12
2017-12-17T00:44:27.240Z,771.12
2017-12-17T00:44:31.470Z,771.12
2017-12-17T00:44:35.484Z,771.11
2017-12-17T00:44:39.767Z,771.11
2017-12-17T00:44:44.104Z,771.11
2017-12-17T00:44:48.238Z,771.12
2017-12-17T00:44:52.594Z,771.09
2017-12-17T00:44:56.938Z,771.08
2017-12-17T00:45:01.177Z,771.08
2017-12-17T00:45:05.538Z,771.08
2017-12-17T00:45:09.677Z,771.08
2017-12-17T00:45:13.801Z,771.06
2017-12-17T00:45:18.139Z,771.06
2017-12-17T00:45:22.265Z,771.1
2017-12-17T00:45:26.402Z,771.07
2017-12-17T00:45:30.322Z,771.09
2017-12-17T00:45:34.351Z,771.12
2017-12-17T00:45:38.496Z,771.13
2017-12-17T00:45:42.716Z,771.08
2017-12-17T00:45:46.957Z,771.14
2017-12-17T00:45:51.367Z,771.13
2017-12-17T00:45:55.606Z,771.13
2017-12-17T00:45:59.964Z,771.12
2017-12-17T00:46:04.210Z,771.08
2017-12-17T00:46:08.346Z,771.13
2017-12-17T00:46:12.382Z,771.15
2017-12-17T00:46:16.521Z,771.13
2017-12-17T00:46:20.917Z,771.16
2017-12-17T00:46:25.256Z,771.13
2017-12-17T00:46:29.601Z,771.12
2017-12-17T00:46:33.625Z,771.16
2017-12-17T00:46:37.788Z,771.14
2017-12-17T00:46:42.034Z,771.13
2017-12-17T00:46:46.279Z,771.12
2017-12-17T00:46:50.612Z,771.13
2017-12-17T00:46:54.861Z,771.14
2017-12-17T00:46:59.088Z,771.13
2017-12-17T00:47:03.376Z,771.15
2017-12-17T00:47:07.606Z,771.16
2017-12-17T00:47:11.620Z,771.17
2017-12-17T00:47:15.642Z,771.14
2017-12-17T00:47:19.993Z,771.18
2017-12-17T00:47:24.124Z,771.17
2017-12-17T00:47:28.260Z,771.16
2017-12-17T00:47:32.587Z,771.18
2017-12-17T00:47:36.835Z,771.14
2017-12-17T00:47:40.753Z,771.12
2017-12-17T00:47:44.785Z,771.13
2017-12-17T00:47:49.132Z,771.11
2017-12-17T00:47:53.273Z,771.09
2017-12-17T00:47:57.426Z,771.11
2017-12-17T00:48:01.552Z,771.16
2017-12-17T00:48:05.843Z,771.11
2017-12-17T00:48:10.096Z,771.14
2017-12-17T00:48:14.342Z,771.16
2017-12-17T00:48:18.576Z,771.17
2017-12-17T00:48:22.820Z,771.17
2017-12-17T00:48:27.062Z,771.16
2017-12-17T00:48:31.407Z,771.18
2017-12-17T00:48:35.544Z,771.14
2017-12-17T00:48:39.698Z,771.19
2017-12-17T00:48:43.834Z,771.17
2017-12-17T00:48:48.122Z,771.14
2017-12-17T00:48:52.348Z,771.16
2017-12-17T00:48:56.481Z,771.16
2017-12-17T00:49:00.785Z,771.18
2017-12-17T00:49:04.820Z,771.21
2017-12-17T00:49:08.949Z,771.16
2017-12-17T00:49:13.090Z,771.18
2017-12-17T00:49:17.338Z,771.19
2017-12-17T00:49:21.367Z,771.21
2017-12-17T00:49:25.390Z,771.21
2017-12-17T00:49:29.728Z,771.19
2017-12-17T00:49:34.082Z,771.2
2017-12-17T00:49:38.435Z,771.21
2017-12-17T00:49:42.678Z,771.21
2017-12-17T00:49:46.923Z,771.24
2017-12-17T00:49:51.172Z,771.23
2017-12-17T00:49:55.527Z,771.2
2017-12-17T00:49:59.550Z,771.24
2017-12-17T00:50:03.695Z,771.25
2017-12-17T00:50:08.053Z,771.22
2017-12-17T00:50:12.307Z,771.22
2017-12-17T00:50:16.558Z,771.21
2017-12-17T00:50:20.700Z,771.2
2017-12-17T00:50:24.967Z,771.22
2017-12-17T00:50:28.876Z,771.22
2017-12-17T00:50:33.122Z,771.19
2017-12-17T00:50:37.480Z,771.21
2017-12-17T00:50:41.719Z,771.22
2017-12-17T00:50:45.853Z,771.21
2017-12-17T00:50:49.981Z,771.22
2017-12-17T00:50:54.131Z,771.22
2017-12-17T00:50:58.495Z,771.24
2017-12-17T00:51:02.834Z,771.23
2017-12-17T00:51:07.000Z,771.22
2017-12-17T00:51:11.364Z,771.22
2017-12-17T00:51:15.502Z,771.21
2017-12-17T00:51:19.655Z,771.22
2017-12-17T00:51:23.683Z,771.2
2017-12-17T00:51:28.019Z,771.24
2017-12-17T00:51:32.054Z,771.23
2017-12-17T00:51:36.299Z,771.27
2017-12-17T00:51:40.612Z,771.23
2017-12-17T00:51:44.978Z,771.22
2017-12-17T00:51:49.128Z,771.2
2017-12-17T00:51:53.273Z,771.24
2017-12-17T00:51:57.620Z,771.26
2017-12-17T00:52:01.871Z,771.25
2017-12-17T00:52:06.210Z,771.24
2017-12-17T00:52:10.139Z,771.24
2017-12-17T00:52:14.375Z,771.25
2017-12-17T00:52:18.806Z,771.23
2017-12-17T00:52:23.253Z,771.24
2017-12-17T00:52:27.602Z,771.25
2017-12-17T00:52:31.726Z,771.23
2017-12-17T00:52:35.756Z,771.22
2017-12-17T00:52:39.892Z,771.2
2017-12-17T00:52:44.240Z,771.18
2017-12-17T00:52:48.375Z,771.2
2017-12-17T00:52:52.394Z,771.2
2017-12-17T00:52:56.634Z,771.19
2017-12-17T00:53:00.865Z,771.16
2017-12-17T00:53:05.149Z,771.18
2017-12-17T00:53:09.245Z,771.21
2017-12-17T00:53:13.385Z,771.19
2017-12-17T00:53:17.506Z,771.18
2017-12-17T00:53:21.752Z,771.18
2017-12-17T00:53:26.103Z,771.17